Time;durP1;ratioP1;P1;durP2;ratioP2;P2;SDS_P1;SDS_P2;PMS_P1;PMS_P2;Temp;Humidity;BMP_temperature;BMP_pressure;BME280_temperature;BME280_humidity;BME280_pressure;Samples;Min_cycle;Max_cycle;Signal;HPM_P1;HPM_P2
2023/06/25 00:01:50;;;;;;;15.38;13.80;;;18.20;99.90;;;;;;4937019;29;20043;-86
2023/06/25 00:04:16;;;;;;;14.50;13.07;;;18.20;99.90;;;;;;4953172;29;20452;-86
2023/06/25 00:06:42;;;;;;;12.45;11.20;;;18.20;99.90;;;;;;4937245;29;20047;-86
2023/06/25 00:09:07;;;;;;;14.48;12.95;;;18.20;99.90;;;;;;4937917;29;20537;-86
2023/06/25 00:11:33;;;;;;;16.70;15.00;;;18.10;99.90;;;;;;4921410;29;20042;-86
2023/06/25 00:13:59;;;;;;;15.30;13.85;;;18.10;99.90;;;;;;4937264;29;20035;-86
2023/06/25 00:16:25;;;;;;;13.48;12.20;;;18.00;99.90;;;;;;4936725;29;20059;-86
2023/06/25 00:18:51;;;;;;;14.73;12.05;;;18.00;99.90;;;;;;4938245;29;20115;-85
2023/06/25 00:21:16;;;;;;;14.13;10.38;;;18.00;99.90;;;;;;4937658;29;20122;-85
2023/06/25 00:23:42;;;;;;;14.88;13.32;;;18.00;99.90;;;;;;4936475;29;20102;-86
2023/06/25 00:26:08;;;;;;;17.25;15.60;;;18.00;99.90;;;;;;4953175;29;20453;-86
2023/06/25 00:28:33;;;;;;;20.63;18.90;;;18.00;99.90;;;;;;4911280;29;20047;-85
2023/06/25 00:30:59;;;;;;;17.40;15.40;;;17.90;99.90;;;;;;4934750;29;20122;-86
2023/06/25 00:33:24;;;;;;;20.25;18.23;;;18.00;99.90;;;;;;4903036;29;20039;-85
2023/06/25 00:35:50;;;;;;;18.08;14.80;;;17.90;99.90;;;;;;4937039;29;20158;-85
2023/06/25 00:38:16;;;;;;;16.95;14.80;;;17.80;99.90;;;;;;4937444;29;20453;-85
2023/06/25 00:40:42;;;;;;;18.25;16.33;;;17.90;99.90;;;;;;4937154;29;20079;-86
2023/06/25 00:43:08;;;;;;;16.20;14.55;;;17.80;99.90;;;;;;4921109;29;20078;-86
2023/06/25 00:45:34;;;;;;;14.05;11.25;;;17.80;99.90;;;;;;4954220;29;20051;-86
2023/06/25 00:48:01;;;;;;;13.38;11.35;;;17.80;99.90;;;;;;4937000;29;20041;-86
2023/06/25 00:50:27;;;;;;;19.35;17.55;;;17.70;99.90;;;;;;4937616;29;20393;-85
2023/06/25 00:52:54;;;;;;;19.98;18.17;;;17.70;99.90;;;;;;4953813;28;20059;-87
2023/06/25 00:55:20;;;;;;;20.73;18.58;;;17.70;99.90;;;;;;4943708;29;20036;-85
2023/06/25 00:57:46;;;;;;;18.52;16.63;;;17.70;99.90;;;;;;4917462;29;20194;-85
2023/06/25 01:00:14;;;;;;;19.70;17.60;;;17.70;99.90;;;;;;4917937;29;20056;-86
2023/06/25 01:02:48;;;;;;;22.02;19.92;;;17.70;99.90;;;;;;4917668;29;20123;-85
2023/06/25 01:05:22;;;;;;;16.60;11.10;;;17.60;99.90;;;;;;4931902;29;20051;-85
2023/06/25 01:07:50;;;;;;;18.45;16.52;;;17.60;99.90;;;;;;4936749;29;20062;-86
2023/06/25 01:10:16;;;;;;;24.42;22.23;;;17.60;99.90;;;;;;4936699;29;20549;-86
2023/06/25 01:12:44;;;;;;;21.33;18.98;;;17.50;99.90;;;;;;4936055;29;20047;-85
2023/06/25 01:15:10;;;;;;;19.85;14.75;;;17.50;99.90;;;;;;4935668;29;20031;-85
2023/06/25 01:17:37;;;;;;;23.50;17.95;;;17.50;99.90;;;;;;4936097;29;20035;-85
2023/06/25 01:20:09;;;;;;;19.73;17.60;;;17.50;99.90;;;;;;4953284;29;20078;-86
2023/06/25 01:22:34;;;;;;;21.90;19.80;;;17.50;99.90;;;;;;4936232;29;20130;-86
2023/06/25 01:25:00;;;;;;;20.67;18.55;;;17.40;99.90;;;;;;4935506;29;20118;-86
2023/06/25 01:27:26;;;;;;;22.80;20.55;;;17.60;99.90;;;;;;4952332;29;20046;-86
2023/06/25 01:29:53;;;;;;;20.98;18.77;;;17.30;99.90;;;;;;4935513;29;20051;-86
2023/06/25 01:32:19;;;;;;;21.42;19.45;;;17.30;99.90;;;;;;4952230;29;20082;-85
2023/06/25 01:34:45;;;;;;;19.38;14.68;;;17.30;99.90;;;;;;4953408;29;20183;-85
2023/06/25 01:37:11;;;;;;;17.83;15.85;;;17.30;99.90;;;;;;4953512;29;20459;-86
2023/06/25 01:39:37;;;;;;;22.88;20.70;;;17.40;99.90;;;;;;4935955;29;20737;-85
2023/06/25 01:42:04;;;;;;;21.88;19.48;;;17.30;99.90;;;;;;4936331;29;20549;-86
2023/06/25 01:44:31;;;;;;;19.60;17.63;;;17.20;99.90;;;;;;4935956;29;20082;-85
2023/06/25 01:46:57;;;;;;;20.30;18.30;;;17.20;99.90;;;;;;4938106;29;20046;-86
2023/06/25 01:49:24;;;;;;;18.17;13.95;;;17.20;99.90;;;;;;4937552;29;20051;-85
2023/06/25 01:51:50;;;;;;;24.65;19.20;;;17.20;99.90;;;;;;4936040;29;20047;-84
2023/06/25 01:54:16;;;;;;;22.45;20.27;;;17.20;99.90;;;;;;4949233;29;20055;-85
2023/06/25 01:56:42;;;;;;;22.40;20.10;;;17.10;99.90;;;;;;4953234;29;20051;-85
2023/06/25 01:59:08;;;;;;;23.35;21.05;;;17.10;99.90;;;;;;4952851;28;20393;-85
2023/06/25 02:01:34;;;;;;;22.13;19.77;;;17.10;99.90;;;;;;4952572;28;20507;-85
2023/06/25 02:04:00;;;;;;;24.30;21.90;;;17.10;99.90;;;;;;4954098;28;20035;-85
2023/06/25 02:06:25;;;;;;;22.25;20.15;;;17.00;99.90;;;;;;4971534;28;20047;-85
2023/06/25 02:08:51;;;;;;;24.70;22.23;;;17.00;99.90;;;;;;4939302;29;20127;-85
2023/06/25 02:11:17;;;;;;;22.60;20.40;;;17.00;99.90;;;;;;4955222;29;20039;-85
2023/06/25 02:13:43;;;;;;;24.95;22.27;;;17.10;99.90;;;;;;4955427;29;20102;-85
2023/06/25 02:16:08;;;;;;;26.92;24.23;;;17.00;99.90;;;;;;4955173;29;20074;-85
2023/06/25 02:18:36;;;;;;;25.65;22.48;;;17.00;99.90;;;;;;4955120;29;20379;-85
2023/06/25 02:21:01;;;;;;;22.83;20.45;;;17.00;99.90;;;;;;4955184;29;20051;-86
2023/06/25 02:23:27;;;;;;;24.15;21.65;;;16.90;99.90;;;;;;4970361;28;20093;-85
2023/06/25 02:25:53;;;;;;;24.20;21.70;;;16.90;99.90;;;;;;4956540;28;20122;-85
2023/06/25 02:28:18;;;;;;;22.40;19.98;;;16.90;99.90;;;;;;4955225;28;20047;-85
2023/06/25 02:30:44;;;;;;;23.70;21.20;;;16.90;99.90;;;;;;4956468;29;20042;-85
2023/06/25 02:33:10;;;;;;;28.10;21.27;;;16.90;99.90;;;;;;4953964;29;20119;-86
2023/06/25 02:35:36;;;;;;;25.67;22.98;;;16.90;99.90;;;;;;4970743;28;20043;-86
2023/06/25 02:38:02;;;;;;;24.00;19.58;;;16.90;99.90;;;;;;4954748;29;20055;-84
2023/06/25 02:40:28;;;;;;;28.73;24.90;;;16.90;99.90;;;;;;4954769;28;20031;-86
2023/06/25 02:42:54;;;;;;;30.73;27.27;;;16.90;99.90;;;;;;4955766;28;20133;-86
2023/06/25 02:45:20;;;;;;;31.33;26.48;;;16.90;99.90;;;;;;4956838;28;20055;-84
2023/06/25 02:47:46;;;;;;;27.95;24.73;;;16.90;99.90;;;;;;4971547;28;20039;-86
2023/06/25 02:50:12;;;;;;;29.90;26.85;;;16.90;99.90;;;;;;4954462;29;20078;-86
2023/06/25 02:52:37;;;;;;;29.30;23.88;;;16.90;99.90;;;;;;4954029;29;20087;-85
2023/06/25 02:55:04;;;;;;;32.33;26.08;;;16.80;99.90;;;;;;4955362;29;20090;-86
2023/06/25 02:57:29;;;;;;;30.95;27.80;;;16.80;99.90;;;;;;4971585;28;20073;-86
2023/06/25 02:59:56;;;;;;;28.50;25.52;;;16.80;99.90;;;;;;4955849;29;20447;-85
2023/06/25 03:02:21;;;;;;;34.40;30.95;;;16.80;99.90;;;;;;4955390;28;20102;-86
2023/06/25 03:04:48;;;;;;;28.60;24.35;;;16.80;99.90;;;;;;4956433;29;20509;-86
2023/06/25 03:07:13;;;;;;;30.23;26.40;;;16.80;99.90;;;;;;4954335;29;20090;-86
2023/06/25 03:09:39;;;;;;;33.15;27.95;;;16.90;99.90;;;;;;4955035;29;20086;-86
2023/06/25 03:12:05;;;;;;;33.08;28.92;;;16.80;99.90;;;;;;4938483;29;20556;-85
2023/06/25 03:14:31;;;;;;;33.53;29.50;;;16.80;99.90;;;;;;4953416;28;20097;-86
2023/06/25 03:16:57;;;;;;;34.25;29.63;;;16.80;99.90;;;;;;4953363;29;20031;-85
2023/06/25 03:19:23;;;;;;;34.25;25.90;;;16.70;99.90;;;;;;4955140;28;20118;-86
2023/06/25 03:21:49;;;;;;;29.95;25.05;;;16.70;99.90;;;;;;4955693;28;20047;-86
2023/06/25 03:24:14;;;;;;;30.98;25.13;;;16.80;99.90;;;;;;4970502;28;20035;-86
2023/06/25 03:26:40;;;;;;;31.83;25.77;;;16.80;99.90;;;;;;4954018;29;20410;-85
2023/06/25 03:29:06;;;;;;;31.75;24.73;;;16.80;99.90;;;;;;4954767;28;20039;-85
2023/06/25 03:31:32;;;;;;;32.78;26.13;;;16.80;99.90;;;;;;4955806;28;20042;-85
2023/06/25 03:33:57;;;;;;;29.73;25.95;;;16.80;99.90;;;;;;4954811;29;20043;-85
2023/06/25 03:36:25;;;;;;;28.42;23.35;;;17.00;99.90;;;;;;4937297;29;20054;-86
2023/06/25 03:38:50;;;;;;;34.08;30.30;;;16.90;99.90;;;;;;4970458;28;20043;-86
2023/06/25 03:41:16;;;;;;;29.60;26.40;;;16.90;99.90;;;;;;4955048;29;20382;-85
2023/06/25 03:43:42;;;;;;;28.30;25.25;;;16.80;99.90;;;;;;4953521;29;20126;-85
2023/06/25 03:46:07;;;;;;;28.63;25.58;;;16.90;99.90;;;;;;4955564;29;20042;-86
2023/06/25 03:48:33;;;;;;;31.00;25.60;;;16.90;99.90;;;;;;4955051;29;20097;-85
2023/06/25 03:50:59;;;;;;;32.10;25.17;;;16.90;99.90;;;;;;4954011;29;20175;-85
2023/06/25 03:53:26;;;;;;;27.23;21.75;;;16.90;99.90;;;;;;4954521;29;20087;-86
2023/06/25 03:55:52;;;;;;;29.00;22.70;;;17.00;99.90;;;;;;4954033;29;20089;-85
2023/06/25 03:58:17;;;;;;;28.73;25.27;;;17.00;99.90;;;;;;4954669;29;20129;-85
2023/06/25 04:00:44;;;;;;;24.42;19.33;;;17.00;99.90;;;;;;4954519;29;20394;-86
2023/06/25 04:03:10;;;;;;;27.27;23.30;;;17.10;99.90;;;;;;4953780;29;20132;-86
2023/06/25 04:05:36;;;;;;;29.98;26.40;;;17.10;99.90;;;;;;4936524;29;20075;-85
2023/06/25 04:08:02;;;;;;;29.48;26.40;;;17.20;99.90;;;;;;4955002;29;20047;-86
2023/06/25 04:10:28;;;;;;;27.80;20.75;;;17.20;99.90;;;;;;4937743;29;20457;-85
2023/06/25 04:12:54;;;;;;;30.92;20.17;;;17.30;99.90;;;;;;4954857;29;20049;-86
2023/06/25 04:15:19;;;;;;;27.92;24.73;;;17.30;99.90;;;;;;4953633;29;20039;-85
2023/06/25 04:17:46;;;;;;;32.90;29.45;;;17.40;99.90;;;;;;4921576;29;20500;-86
2023/06/25 04:20:12;;;;;;;26.45;19.25;;;17.40;99.90;;;;;;4954191;29;20039;-86
2023/06/25 04:22:38;;;;;;;28.50;25.40;;;17.40;99.90;;;;;;4954676;29;20031;-85
2023/06/25 04:25:05;;;;;;;30.88;27.77;;;17.50;99.90;;;;;;4953787;29;20568;-85
2023/06/25 04:27:30;;;;;;;33.53;26.70;;;17.50;99.90;;;;;;4936491;29;20035;-86
2023/06/25 04:29:56;;;;;;;28.55;25.13;;;17.60;99.90;;;;;;4952538;29;20043;-86
2023/06/25 04:32:22;;;;;;;27.92;18.27;;;17.60;99.90;;;;;;4920442;29;20043;-86
2023/06/25 04:34:48;;;;;;;26.25;23.15;;;17.60;99.90;;;;;;4937339;29;20656;-86
2023/06/25 04:37:13;;;;;;;27.30;21.65;;;17.70;99.90;;;;;;4953710;29;20501;-86
2023/06/25 04:39:40;;;;;;;24.85;20.67;;;17.80;99.90;;;;;;4938984;29;20039;-85
2023/06/25 04:42:06;;;;;;;27.08;21.60;;;17.80;99.90;;;;;;4953005;29;20042;-86
2023/06/25 04:44:31;;;;;;;24.15;18.33;;;17.80;99.90;;;;;;4937520;29;20078;-86
2023/06/25 04:46:57;;;;;;;24.77;20.42;;;18.00;99.90;;;;;;4939210;29;20051;-86
2023/06/25 04:49:23;;;;;;;24.92;19.02;;;18.20;99.90;;;;;;4938043;29;20082;-86
2023/06/25 04:51:48;;;;;;;26.77;19.75;;;18.50;99.90;;;;;;4938537;29;20051;-86
2023/06/25 04:54:15;;;;;;;22.48;18.60;;;18.70;99.90;;;;;;4955636;29;20469;-85
2023/06/25 04:56:41;;;;;;;21.85;18.17;;;18.70;99.90;;;;;;4955750;29;20055;-86
2023/06/25 04:59:06;;;;;;;25.15;19.27;;;18.70;99.90;;;;;;4955485;29;20054;-86
2023/06/25 05:01:32;;;;;;;23.50;18.65;;;18.80;99.90;;;;;;4936440;29;20490;-85
2023/06/25 05:04:16;;;;;;;21.98;18.65;;;18.90;99.90;;;;;;4927872;29;20039;-86
2023/06/25 05:06:41;;;;;;;21.90;18.50;;;18.80;99.90;;;;;;4942904;29;20179;-87
2023/06/25 05:09:07;;;;;;;21.50;17.75;;;18.90;99.90;;;;;;4955811;29;20086;-87
2023/06/25 05:11:33;;;;;;;21.75;17.75;;;18.90;99.90;;;;;;4938700;29;20059;-86
2023/06/25 05:13:58;;;;;;;20.90;18.10;;;19.20;99.90;;;;;;4937630;29;20039;-87
2023/06/25 05:16:24;;;;;;;20.55;17.10;;;20.00;99.90;;;;;;4922453;29;20046;-86
2023/06/25 05:18:50;;;;;;;20.13;15.63;;;21.20;99.90;;;;;;4923391;29;20053;-87
2023/06/25 05:21:16;;;;;;;17.85;14.75;;;22.40;99.90;;;;;;4955096;29;20549;-86
2023/06/25 05:23:55;;;;;;;18.63;14.20;;;23.50;99.90;;;;;;4955492;29;20070;-86
2023/06/25 05:26:21;;;;;;;19.10;14.13;;;24.10;99.90;;;;;;4904986;29;20071;-86
2023/06/25 05:28:47;;;;;;;16.63;13.50;;;24.80;99.90;;;;;;4918983;29;20095;-85
2023/06/25 05:31:12;;;;;;;18.02;14.00;;;25.60;99.90;;;;;;4933525;29;20071;-86
2023/06/25 05:33:38;;;;;;;14.88;13.23;;;26.10;99.90;;;;;;4903819;29;20058;-87
2023/06/25 05:36:04;;;;;;;18.73;16.75;;;26.50;99.90;;;;;;4927609;29;20573;-87
2023/06/25 05:38:30;;;;;;;30.92;28.13;;;26.90;99.90;;;;;;4918290;29;20090;-87
2023/06/25 05:40:55;;;;;;;49.25;45.95;;;27.00;99.90;;;;;;4934490;29;20097;-85
2023/06/25 05:43:21;;;;;;;157.93;148.07;;;27.50;99.90;;;;;;4951116;29;20043;-86
2023/06/25 05:45:47;;;;;;;180.18;169.05;;;27.80;99.90;;;;;;4933412;29;20062;-85
2023/06/25 05:48:12;;;;;;;296.35;277.45;;;28.10;99.60;;;;;;4930130;29;20154;-84
2023/06/25 05:50:38;;;;;;;408.33;379.65;;;28.10;99.20;;;;;;4951194;29;20042;-85
2023/06/25 05:53:04;;;;;;;583.45;538.58;;;28.40;98.30;;;;;;4950609;29;20051;-85
2023/06/25 05:55:30;;;;;;;890.75;812.72;;;28.50;99.40;;;;;;4934081;29;20043;-85
2023/06/25 05:57:55;;;;;;;1030.07;924.00;;;28.50;98.00;;;;;;4944990;29;20050;-85
2023/06/25 06:00:23;;;;;;;1071.15;955.33;;;28.80;97.70;;;;;;4934322;29;20082;-87
2023/06/25 06:02:48;;;;;;;1206.05;983.78;;;28.80;97.00;;;;;;4925072;29;20482;-86
2023/06/25 06:05:14;;;;;;;1274.72;999.90;;;28.90;98.00;;;;;;4923267;29;20126;-87
2023/06/25 06:07:40;;;;;;;1498.63;999.90;;;29.10;97.50;;;;;;4912890;29;20042;-85
2023/06/25 06:10:06;;;;;;;1372.25;999.90;;;29.60;97.20;;;;;;4950812;29;20039;-85
2023/06/25 06:12:32;;;;;;;1638.07;999.90;;;29.90;95.90;;;;;;4950112;29;20039;-85
2023/06/25 06:14:57;;;;;;;1641.13;999.90;;;30.00;96.00;;;;;;4933956;29;20477;-85
2023/06/25 06:17:23;;;;;;;1999.90;999.90;;;29.90;95.40;;;;;;4950690;29;20639;-85
2023/06/25 06:19:49;;;;;;;1887.07;999.90;;;30.30;96.20;;;;;;4951234;29;20039;-85
2023/06/25 06:22:16;;;;;;;1999.90;999.90;;;30.50;95.20;;;;;;4934310;29;20148;-85
2023/06/25 06:24:42;;;;;;;1999.90;999.90;;;30.90;94.70;;;;;;4934241;29;20124;-84
2023/06/25 06:27:07;;;;;;;1999.90;999.90;;;31.10;95.10;;;;;;4951494;29;20027;-85
2023/06/25 06:29:33;;;;;;;1999.90;999.90;;;31.20;94.80;;;;;;4965341;28;20074;-85
2023/06/25 06:31:59;;;;;;;1999.90;999.90;;;31.30;95.20;;;;;;4951515;29;20122;-85
2023/06/25 06:34:24;;;;;;;1999.90;999.90;;;31.10;94.10;;;;;;4919710;29;20417;-85
2023/06/25 06:36:50;;;;;;;1999.90;999.90;;;31.10;95.20;;;;;;4937570;29;20050;-85
2023/06/25 06:39:17;;;;;;;1999.90;999.90;;;30.40;94.70;;;;;;4934329;29;20510;-85
2023/06/25 06:41:42;;;;;;;1999.90;999.90;;;30.80;95.20;;;;;;4933726;29;20102;-84
2023/06/25 06:44:14;;;;;;;1999.90;999.90;;;31.00;94.90;;;;;;4950360;29;20125;-84
2023/06/25 06:46:40;;;;;;;1999.90;999.90;;;31.20;95.00;;;;;;4950846;29;20047;-85
2023/06/25 06:49:06;;;;;;;1999.90;999.90;;;31.60;94.70;;;;;;4949099;28;20043;-85
2023/06/25 06:51:34;;;;;;;1999.90;999.90;;;31.70;95.00;;;;;;4953999;29;20043;-85
2023/06/25 06:54:00;;;;;;;1999.90;999.90;;;31.90;94.40;;;;;;4933126;29;20055;-85
2023/06/25 06:56:25;;;;;;;1999.90;999.90;;;32.10;94.40;;;;;;4937253;29;20166;-85
2023/06/25 06:58:51;;;;;;;1999.90;999.90;;;32.10;94.70;;;;;;4952284;29;20155;-85
2023/06/25 07:01:16;;;;;;;1999.90;999.90;;;32.50;94.00;;;;;;4953200;29;20404;-85
2023/06/25 07:03:42;;;;;;;1999.90;999.90;;;33.10;95.10;;;;;;4952820;29;20041;-86
2023/06/25 07:06:08;;;;;;;1999.90;999.90;;;33.40;94.10;;;;;;4936819;29;20754;-85
2023/06/25 07:08:33;;;;;;;1999.90;999.90;;;34.00;93.10;;;;;;4953885;29;20552;-86
2023/06/25 07:10:59;;;;;;;1999.90;987.53;;;34.00;93.70;;;;;;4953998;29;20521;-85
2023/06/25 07:13:25;;;;;;;1999.90;999.90;;;34.20;93.10;;;;;;4953675;29;20039;-85
2023/06/25 07:15:50;;;;;;;1999.90;834.10;;;34.10;92.80;;;;;;4953978;29;20630;-86
2023/06/25 07:18:16;;;;;;;1999.90;854.70;;;34.40;92.70;;;;;;4952400;28;20039;-85
2023/06/25 07:20:42;;;;;;;1999.90;940.53;;;34.50;92.30;;;;;;4952732;29;20074;-85
2023/06/25 07:23:07;;;;;;;1999.90;989.13;;;34.10;93.30;;;;;;4952460;29;20043;-85
2023/06/25 07:25:35;;;;;;;1999.90;754.00;;;34.20;93.10;;;;;;4954237;29;20087;-85
2023/06/25 07:28:01;;;;;;;1999.90;825.75;;;34.20;92.90;;;;;;4953753;29;20494;-86
2023/06/25 07:30:27;;;;;;;1989.05;690.47;;;33.90;92.20;;;;;;4956778;28;20038;-85
2023/06/25 07:32:52;;;;;;;1999.90;720.78;;;33.90;92.70;;;;;;4953506;29;20175;-84
2023/06/25 07:35:18;;;;;;;1228.68;370.80;;;34.00;92.90;;;;;;4936928;29;20421;-85
2023/06/25 07:37:44;;;;;;;1779.55;601.10;;;34.40;92.90;;;;;;4953976;29;20035;-85
2023/06/25 07:40:09;;;;;;;1787.25;832.25;;;34.50;92.40;;;;;;4952848;29;20122;-85
2023/06/25 07:42:35;;;;;;;1770.90;825.78;;;35.10;92.70;;;;;;4951877;29;20647;-85
2023/06/25 07:45:01;;;;;;;1999.90;999.90;;;35.40;93.00;;;;;;4953598;29;20036;-84
2023/06/25 07:47:26;;;;;;;1999.90;999.90;;;35.50;92.30;;;;;;4951823;29;20035;-85
2023/06/25 07:49:52;;;;;;;1999.90;999.90;;;35.50;91.90;;;;;;4951898;29;20098;-85
2023/06/25 07:52:18;;;;;;;1999.90;999.90;;;35.60;92.30;;;;;;4952308;29;20039;-85
2023/06/25 07:54:43;;;;;;;1999.90;999.90;;;35.50;90.80;;;;;;4953326;29;20055;-84
2023/06/25 07:57:09;;;;;;;1999.90;999.90;;;35.50;92.00;;;;;;4920248;29;20043;-84
2023/06/25 07:59:35;;;;;;;1999.90;999.90;;;35.70;90.60;;;;;;4935991;29;20047;-85
2023/06/25 08:02:00;;;;;;;1999.90;999.90;;;35.60;91.70;;;;;;4934683;29;20098;-84
2023/06/25 08:04:26;;;;;;;1999.90;999.90;;;35.60;90.60;;;;;;4936081;29;20042;-84
2023/06/25 08:06:52;;;;;;;1999.90;999.90;;;35.50;92.00;;;;;;4920091;29;20047;-86
2023/06/25 08:09:17;;;;;;;1999.90;999.90;;;35.70;91.40;;;;;;4953062;29;20102;-86
2023/06/25 08:11:43;;;;;;;1999.90;999.90;;;36.00;91.60;;;;;;4935565;29;20058;-86
2023/06/25 08:14:09;;;;;;;1999.90;999.90;;;36.10;90.80;;;;;;4935621;29;20126;-84
2023/06/25 08:16:35;;;;;;;1999.90;999.90;;;35.90;90.70;;;;;;4935739;29;20078;-85
2023/06/25 08:19:00;;;;;;;1999.90;999.90;;;35.80;91.00;;;;;;4952610;29;20145;-85
2023/06/25 08:21:26;;;;;;;1999.90;999.90;;;35.60;89.90;;;;;;4935584;29;20664;-86
2023/06/25 08:23:52;;;;;;;1999.90;999.90;;;35.50;90.50;;;;;;4935721;29;20039;-85
2023/06/25 08:26:18;;;;;;;1999.90;999.90;;;35.60;91.50;;;;;;4953564;29;20117;-85
2023/06/25 08:28:43;;;;;;;1999.90;999.90;;;35.80;91.00;;;;;;4941757;29;20055;-86
2023/06/25 08:31:10;;;;;;;1999.90;999.90;;;36.00;90.50;;;;;;4925351;29;20050;-86
2023/06/25 08:33:36;;;;;;;1999.90;999.90;;;35.70;90.90;;;;;;4929200;28;20049;-86
2023/06/25 08:36:02;;;;;;;1999.90;999.90;;;36.20;91.30;;;;;;4943063;29;20042;-86
2023/06/25 08:38:30;;;;;;;1999.90;999.90;;;36.50;91.10;;;;;;4952245;29;20047;-86
2023/06/25 08:40:56;;;;;;;1999.90;999.90;;;36.60;90.80;;;;;;4934753;29;20161;-86
2023/06/25 08:43:22;;;;;;;1999.90;999.90;;;36.40;89.40;;;;;;4934921;29;20502;-86
2023/06/25 08:45:48;;;;;;;1999.90;999.90;;;36.20;90.20;;;;;;4951649;29;20489;-86
2023/06/25 08:48:14;;;;;;;1999.90;999.90;;;36.20;90.10;;;;;;4934518;29;20055;-86
2023/06/25 08:50:50;;;;;;;1999.90;999.90;;;35.90;90.30;;;;;;4951612;29;20039;-87
2023/06/25 08:53:16;;;;;;;1999.90;999.90;;;36.00;89.40;;;;;;4940093;29;20051;-85
2023/06/25 08:55:44;;;;;;;1999.90;999.90;;;35.90;90.10;;;;;;4951099;29;20460;-89
2023/06/25 08:58:10;;;;;;;1999.90;999.90;;;35.90;90.30;;;;;;4966920;28;20070;-88
2023/06/25 09:00:35;;;;;;;1999.90;999.90;;;35.60;89.10;;;;;;4951622;29;20071;-91
2023/06/25 09:03:01;;;;;;;1999.90;999.90;;;35.40;88.10;;;;;;4946282;29;20468;-91
2023/06/25 09:05:27;;;;;;;1999.90;999.90;;;34.50;87.60;;;;;;4948079;29;20027;-90
2023/06/25 09:07:54;;;;;;;1999.90;999.90;;;34.30;88.90;;;;;;4951436;29;20039;-90
2023/06/25 09:10:20;;;;;;;1999.90;999.90;;;33.90;88.80;;;;;;4936136;29;20071;-91
2023/06/25 09:12:48;;;;;;;1999.90;999.90;;;33.80;88.40;;;;;;4933341;29;20040;-91
2023/06/25 09:15:19;;;;;;;1999.90;999.90;;;33.50;89.50;;;;;;4919485;29;20052;-91
2023/06/25 09:17:45;;;;;;;1999.90;999.90;;;33.50;90.00;;;;;;4968173;28;20049;-89
2023/06/25 09:20:11;;;;;;;1999.90;999.90;;;33.50;90.10;;;;;;4967951;28;20126;-90
2023/06/25 09:22:53;;;;;;;1999.90;999.90;;;33.20;90.00;;;;;;4951431;29;20039;-89
2023/06/25 09:25:21;;;;;;;1979.20;614.70;;;32.70;89.10;;;;;;4954195;29;20099;-91
2023/06/25 09:27:48;;;;;;;1999.90;999.90;;;32.50;90.10;;;;;;4939846;29;20047;-90
2023/06/25 09:30:16;;;;;;;1999.90;999.90;;;32.60;91.30;;;;;;4937828;29;20440;-90
2023/06/25 09:32:52;;;;;;;1999.90;999.90;;;32.80;91.70;;;;;;4926397;29;20036;-90
2023/06/25 09:35:24;;;;;;;1999.90;999.90;;;32.90;90.90;;;;;;4918832;29;20067;-88
2023/06/25 09:37:51;;;;;;;1999.90;999.90;;;32.90;90.10;;;;;;4935799;29;20129;-90
2023/06/25 09:40:19;;;;;;;1999.90;999.90;;;32.70;89.60;;;;;;4955620;28;20035;-90
2023/06/25 09:42:56;;;;;;;1999.90;999.90;;;32.80;90.50;;;;;;4960099;28;20050;-88
2023/06/25 09:45:23;;;;;;;1999.90;999.90;;;32.60;89.10;;;;;;4952783;29;20406;-87
2023/06/25 09:47:51;;;;;;;1999.90;999.90;;;32.60;89.10;;;;;;4952613;29;20062;-90
2023/06/25 09:50:19;;;;;;;1999.90;999.90;;;32.40;88.80;;;;;;4937082;29;20044;-90
2023/06/25 09:52:54;;;;;;;1999.90;999.90;;;32.50;89.80;;;;;;4936730;29;20051;-89
2023/06/25 09:55:21;;;;;;;1999.90;999.90;;;32.40;89.80;;;;;;4937189;29;20054;-88
2023/06/25 09:57:48;;;;;;;1999.90;999.90;;;32.30;89.70;;;;;;4969622;28;20175;-90
2023/06/25 10:00:15;;;;;;;1999.90;999.90;;;32.20;90.00;;;;;;4952698;29;20050;-89
2023/06/25 10:02:41;;;;;;;1999.90;999.90;;;32.00;89.50;;;;;;4952607;29;20449;-89
2023/06/25 10:05:06;;;;;;;1999.90;999.90;;;31.90;90.00;;;;;;4953028;29;20043;-87
2023/06/25 10:07:32;;;;;;;1999.90;999.90;;;31.90;89.50;;;;;;4952173;28;20043;-86
2023/06/25 10:09:58;;;;;;;1999.90;999.90;;;31.90;89.10;;;;;;4952420;29;20048;-89
2023/06/25 10:12:24;;;;;;;1999.90;999.90;;;31.20;88.70;;;;;;4930753;29;20059;-89
2023/06/25 10:14:50;;;;;;;1999.90;999.90;;;31.10;90.30;;;;;;4933597;29;20036;-92
2023/06/25 10:17:18;;;;;;;1999.90;999.90;;;31.40;90.10;;;;;;4934089;29;20412;-89
2023/06/25 10:19:52;;;;;;;1999.90;999.90;;;31.60;91.00;;;;;;4935729;29;20497;-88
2023/06/25 10:22:24;;;;;;;1999.90;999.90;;;31.90;89.40;;;;;;4935380;29;20070;-90
2023/06/25 10:24:54;;;;;;;1999.90;999.90;;;31.90;88.50;;;;;;4953689;28;20043;-88
2023/06/25 10:27:26;;;;;;;1999.90;999.90;;;32.00;90.60;;;;;;4957859;29;20047;-89
2023/06/25 10:29:53;;;;;;;1999.90;999.90;;;32.30;91.40;;;;;;4940302;29;20044;-84
2023/06/25 10:32:23;;;;;;;1999.90;999.90;;;32.20;89.40;;;;;;4955792;28;20035;-85
2023/06/25 10:34:58;;;;;;;1999.90;999.90;;;32.20;89.80;;;;;;4937882;29;20055;-87
2023/06/25 10:37:32;;;;;;;1999.90;999.90;;;32.10;90.60;;;;;;4954596;29;20051;-91
2023/06/25 10:40:21;;;;;;;1999.90;999.90;;;32.30;90.60;;;;;;4966754;28;20512;-89
2023/06/25 10:42:47;;;;;;;1999.90;999.90;;;32.30;89.00;;;;;;4954565;28;20070;-89
2023/06/25 10:45:12;;;;;;;1999.90;999.90;;;32.20;88.60;;;;;;4948226;28;20063;-91
2023/06/25 10:47:39;;;;;;;1999.90;999.90;;;32.00;89.40;;;;;;4938579;29;20044;-88
2023/06/25 10:50:05;;;;;;;1999.90;999.90;;;32.20;90.50;;;;;;4934311;29;20047;-87
2023/06/25 10:52:30;;;;;;;1999.90;999.90;;;32.50;89.10;;;;;;4936561;29;20066;-88
2023/06/25 10:54:59;;;;;;;1999.90;999.90;;;32.60;89.70;;;;;;4905387;29;20051;-89
2023/06/25 10:57:27;;;;;;;1999.90;999.90;;;32.70;87.90;;;;;;4904255;29;20043;-87
2023/06/25 10:59:53;;;;;;;1999.90;999.90;;;32.80;88.50;;;;;;4919703;29;20039;-87
2023/06/25 11:02:20;;;;;;;1999.90;999.90;;;33.10;85.80;;;;;;4919916;29;20395;-87
2023/06/25 11:04:51;;;;;;;1999.90;999.90;;;33.20;85.70;;;;;;4927587;29;20449;-87
2023/06/25 11:07:19;;;;;;;1999.90;999.90;;;33.20;84.00;;;;;;4933003;29;20095;-88
2023/06/25 11:09:50;;;;;;;1999.90;954.33;;;33.30;86.30;;;;;;4919522;29;20087;-89
2023/06/25 11:12:16;;;;;;;1999.90;999.90;;;33.20;86.30;;;;;;4912337;29;20039;-90
2023/06/25 11:14:42;;;;;;;1999.90;999.90;;;33.20;85.70;;;;;;4954615;29;20032;-88
2023/06/25 11:17:08;;;;;;;1999.90;999.90;;;32.80;85.40;;;;;;4938720;29;20040;-88
2023/06/25 11:19:33;;;;;;;1999.90;999.90;;;32.60;87.10;;;;;;4960078;28;20077;-88
2023/06/25 11:22:04;;;;;;;1999.90;999.90;;;32.50;87.70;;;;;;4942450;28;20441;-89
2023/06/25 11:24:34;;;;;;;1999.90;999.90;;;32.60;87.30;;;;;;4937413;29;20047;-87
2023/06/25 11:27:00;;;;;;;1999.90;999.90;;;32.40;86.20;;;;;;4928480;29;20039;-90
2023/06/25 11:29:36;;;;;;;1999.90;999.90;;;32.40;84.90;;;;;;4927021;29;20517;-91
2023/06/25 11:32:05;;;;;;;1999.90;999.90;;;32.20;84.50;;;;;;4956334;28;20042;-92
2023/06/25 11:34:31;;;;;;;1999.90;999.90;;;32.30;86.40;;;;;;4958806;28;20038;-91
2023/06/25 11:37:11;;;;;;;1999.90;999.90;;;32.50;86.40;;;;;;4956073;28;20053;-90
2023/06/25 11:39:48;;;;;;;1999.90;999.90;;;32.80;87.20;;;;;;4938741;29;20186;-87
2023/06/25 11:42:24;;;;;;;1999.90;999.90;;;33.10;85.70;;;;;;4959364;29;20039;-88
2023/06/25 11:45:05;;;;;;;1999.90;999.90;;;33.40;86.20;;;;;;4958080;29;20676;-91
2023/06/25 11:47:31;;;;;;;1912.55;868.13;;;33.50;84.50;;;;;;4942282;29;20039;-91
2023/06/25 11:49:58;;;;;;;1999.90;999.90;;;33.60;87.00;;;;;;4942426;29;20071;-90
2023/06/25 11:52:25;;;;;;;1999.90;999.90;;;33.50;83.40;;;;;;4944877;28;20149;-88
2023/06/25 11:54:50;;;;;;;1999.90;999.90;;;33.60;82.90;;;;;;4945922;29;20046;-88
2023/06/25 11:57:17;;;;;;;1999.90;999.90;;;33.50;83.60;;;;;;4927094;29;20050;-89
2023/06/25 11:59:43;;;;;;;1999.90;999.90;;;33.60;83.70;;;;;;4930031;29;20070;-86
2023/06/25 12:02:12;;;;;;;1999.90;999.90;;;33.60;83.90;;;;;;4926371;29;20404;-92
2023/06/25 12:04:38;;;;;;;1999.90;999.90;;;33.50;83.00;;;;;;4958966;29;20050;-89
2023/06/25 12:07:04;;;;;;;1999.90;999.90;;;33.60;82.80;;;;;;4942779;29;20039;-91
2023/06/25 12:09:29;;;;;;;1999.90;999.90;;;33.70;84.00;;;;;;4959153;29;20050;-91